Arietta, New York
Current Conditions -  °F | °C
As of 10:35 AM on Saturday 22 Nov 2014 (Local Time) from KNY0 Reporting Station
Clear Clear  
Wind Chill: 24°   Ceiling: Unl
Heat Index: 24°   Visibility: 10mi
Dew Point: 12°   Wind: 3mph
Humidity: 59%   Direction: 250°WSW
Pressure: 30.26"   Gusts: NA
Location:  43.5975°N, 74.5775°W
Report Text: KNY0 221535Z AUTO 25003KT 10SM CLR M04/M11 A3026 RMK AO2 T10441113
Loading
Personal Weather Stations






























Interactive Weather Map New forecast layout! Learn more

10-Day Weather Forecast

Advertisements
Track Severe Weather on mobile